Currently 62°F in Riverside (Presidential Park), California, USA
62°F
62°F / 50°F
calm
0.00"
Wednesday, October 28, 2020 9:49 AM PDT

Riverside (Presidential Park), California Weather Summary
Last 36 Hours

Temperature Winds Hourly Humidity Dewpoint
Time Report Norm Report Norm Max Gusts Precip. Rpt. Norm Rpt. Norm Pressure
1,2Wed 09:49 AM  61.9°F  66°F  calm  2 mph  4 mph  0.00"  38%  55%  35°F  49°F  30.08"
Wed 09:00 AM  55.9°F  62°F  calm  1 mph  none  0.00"  47%  62%  35°F  48°F  30.09"
Wed 08:00 AM  50.4°F  58°F  calm  1 mph  2 mph  0.00"  54%  66%  34°F  47°F  30.08"
3Wed 07:19 AM  49.6°F  58°F  calm  2 mph  none  ----  53%  66%  32°F  46°F  30.08"
Wed 07:00 AM  50.2°F  58°F  calm  1 mph  none  0.00"  52%  66%  32°F  46°F  30.07"
Wed 06:00 AM  51.0°F  58°F  calm  1 mph  none  0.00"  51%  66%  33°F  46°F  30.07"
Wed 05:00 AM  53.0°F  58°F  calm  1 mph  3 mph  0.00"  47%  66%  33°F  46°F  30.06"
Wed 04:00 AM  55.1°F  59°F  calm  1 mph  7 mph  0.00"  43%  65%  32°F  46°F  30.05"
Wed 03:00 AM  54.9°F  59°F  calm  1 mph  2 mph  0.00"  47%  64%  34°F  47°F  30.05"
Wed 02:00 AM  55.8°F  60°F  calm  1 mph  none  0.00"  43%  63%  33°F  47°F  30.06"
Wed 01:00 AM  57.6°F  61°F  calm  1 mph  5 mph  0.00"  38%  62%  31°F  47°F  30.06"
Wed 12:00 AM  59.3°F  62°F  calm  1 mph  7 mph  0.00"  31%  61%  28°F  48°F  30.06"
Tue 11:00 PM  59.0°F  63°F  calm  2 mph  6 mph  0.00"  30%  59%  26°F  48°F  30.06"
Tue 10:00 PM  62.2°F  65°F  calm  2 mph  5 mph  0.00"  25%  57%  25°F  48°F  30.05"
Tue 09:00 PM  66.2°F  66°F  1 mph SE  2 mph  7 mph  0.00"  20%  54%  22°F  49°F  30.03"
Tue 08:00 PM  68.4°F  69°F  3 mph W  2 mph  9 mph  0.00"  15%  50%  17°F  49°F  30.01"
Tue 07:00 PM  71.0°F  72°F  6 mph SW  3 mph  11 mph  0.00"  12%  45%  13°F  48°F  30.00"
Tue 06:00 PM  73.5°F  75°F  8 mph NW  4 mph  16 mph  0.00"  14%  39%  19°F  48°F  29.99"
Tue 05:00 PM  75.4°F  78°F  10 mph W  5 mph  21 mph  0.00"  12%  34%  18°F  46°F  29.97"
Tue 04:00 PM  75.4°F  79°F  6 mph W  6 mph  23 mph  0.00"  12%  32%  16°F  45°F  29.97"
Tue 03:00 PM  75.2°F  79°F  15 mph W  5 mph  23 mph  0.00"  10%  31%  12°F  45°F  29.98"
Tue 02:00 PM  74.7°F  78°F  12 mph NW  5 mph  25 mph  0.00"  10%  32%  13°F  45°F  29.98"
Tue 01:00 PM  73.8°F  77°F  10 mph NW  4 mph  30 mph  0.00"  9%  35%  9°F  46°F  30.00"
Tue 12:00 PM  72.2°F  74°F  12 mph W  3 mph  25 mph  0.00"  9%  40%  6°F  48°F  30.03"
Tue 11:00 AM  70.8°F  71°F  15 mph NW  3 mph  27 mph  0.00"  8%  47%  3°F  49°F  30.03"
Tue 10:00 AM  69.1°F  67°F  9 mph W  2 mph  17 mph  0.00"  8%  54%  3°F  50°F  30.06"
Tue 09:00 AM  66.5°F  62°F  4 mph NE  1 mph  8 mph  0.00"  10%  64%  6°F  49°F  30.05"
Tue 08:00 AM  62.8°F  58°F  calm  1 mph  20 mph  0.00"  11%  67%  4°F  47°F  30.03"
Tue 07:00 AM  63.8°F  58°F  9 mph W  1 mph  27 mph  0.00"  9%  67%  1°F  47°F  30.01"
Tue 06:00 AM  64.6°F  58°F  12 mph NW  1 mph  24 mph  0.00"  8%  67%  -2°F  47°F  30.01"
Tue 05:00 AM  64.4°F  58°F  11 mph NW  1 mph  20 mph  0.00"  8%  67%  -1°F  47°F  30.02"
Tue 04:00 AM  64.4°F  59°F  10 mph NW  1 mph  18 mph  0.00"  8%  65%  -1°F  47°F  30.02"
Tue 03:00 AM  64.2°F  60°F  8 mph NW  1 mph  15 mph  0.00"  9%  65%  1°F  48°F  30.03"
Tue 02:00 AM  64.4°F  61°F  4 mph W  1 mph  10 mph  0.00"  8%  64%  0°F  48°F  30.04"
Tue 01:00 AM  62.5°F  61°F  3 mph SW  1 mph  7 mph  0.00"  9%  63%  0°F  48°F  30.03"
Tue 12:00 AM  63.4°F  62°F  calm  1 mph  18 mph  0.00"  9%  61%  0°F  48°F  30.03"
Mon 11:00 PM  64.4°F  63°F  3 mph W  2 mph  15 mph  0.00"  8%  60%  -1°F  49°F  30.03"
Mon 10:00 PM  63.8°F  65°F  9 mph W  2 mph  18 mph  0.00"  8%  58%  -3°F  49°F  30.03"

  1. Current weather data. No green row appears if the current weather data is also the high or low for the current day.
  2. High temperature for the current day.
  3. Low temperature for the current day.

The Riverside (Presidential Park), California weather pages are a service of WeatherCurrents.
Copyright ©2020  WeatherCurrents. All rights reserved. - Submit questions and comments - Privacy Policy

This page automatically refreshes every 10 minutes.